createdAt,value
2022-10-05T00:01:46.979Z,98.12
2022-10-05T00:04:58.717Z,97.76
2022-10-05T00:08:15.014Z,97.52
2022-10-05T00:11:21.532Z,97.67
2022-10-05T00:14:30.963Z,97.66
2022-10-05T00:17:42.773Z,97.82
2022-10-05T00:20:51.577Z,98.10
2022-10-05T00:23:59.675Z,97.69
2022-10-05T00:27:17.760Z,97.60
2022-10-05T00:30:26.028Z,97.67
2022-10-05T00:33:32.948Z,97.71
2022-10-05T00:36:43.934Z,97.87
2022-10-05T00:39:51.797Z,98.37
2022-10-05T00:43:15.345Z,99.02
2022-10-05T00:46:32.608Z,99.84
2022-10-05T00:50:00.158Z,100.00
2022-10-05T00:53:19.195Z,100.00
2022-10-05T00:56:58.910Z,100.00
2022-10-05T01:00:09.969Z,100.00
2022-10-05T01:03:24.529Z,100.00
2022-10-05T01:06:52.072Z,100.00
2022-10-05T01:10:07.075Z,100.00
2022-10-05T01:13:24.446Z,100.00
2022-10-05T01:16:54.010Z,100.00
2022-10-05T01:20:20.663Z,100.00
2022-10-05T01:24:05.701Z,100.00
2022-10-05T01:27:33.933Z,100.00
2022-10-05T01:30:48.904Z,100.00
2022-10-05T01:34:10.566Z,100.00
2022-10-05T01:37:38.891Z,100.00
2022-10-05T01:40:55.516Z,100.00
2022-10-05T01:44:12.107Z,100.00
2022-10-05T01:47:26.790Z,100.00
2022-10-05T01:50:47.276Z,100.00
2022-10-05T01:54:04.506Z,100.00
2022-10-05T01:57:23.240Z,100.00
2022-10-05T02:00:33.668Z,100.00
2022-10-05T02:03:46.057Z,100.00
2022-10-05T02:06:57.689Z,100.00
2022-10-05T02:10:11.164Z,100.00
2022-10-05T02:13:25.317Z,100.00
2022-10-05T02:16:39.849Z,100.00
2022-10-05T02:19:49.952Z,100.00
2022-10-05T02:23:01.367Z,100.00
2022-10-05T02:26:12.042Z,100.00
2022-10-05T02:29:25.609Z,100.00
2022-10-05T02:32:39.612Z,100.00
2022-10-05T02:35:49.514Z,100.00
2022-10-05T02:39:05.472Z,100.00
2022-10-05T02:42:22.018Z,100.00
2022-10-05T02:45:41.652Z,100.00
2022-10-05T02:49:02.765Z,100.00
2022-10-05T02:52:15.121Z,100.00
2022-10-05T02:55:32.497Z,100.00
2022-10-05T02:58:46.757Z,100.00
2022-10-05T03:02:00.756Z,100.00
2022-10-05T03:05:20.857Z,100.00
2022-10-05T03:08:35.009Z,100.00
2022-10-05T03:11:50.792Z,100.00
2022-10-05T03:15:11.384Z,100.00
2022-10-05T03:18:30.757Z,100.00
2022-10-05T03:21:54.144Z,100.00
2022-10-05T03:25:27.029Z,100.00
2022-10-05T03:28:45.788Z,100.00
2022-10-05T03:32:01.659Z,100.00
2022-10-05T03:35:14.303Z,100.00
2022-10-05T03:38:30.030Z,100.00
2022-10-05T03:41:43.841Z,100.00
2022-10-05T03:44:56.852Z,100.00
2022-10-05T03:48:09.523Z,100.00
2022-10-05T03:51:25.217Z,100.00
2022-10-05T03:54:45.850Z,100.00
2022-10-05T03:57:55.718Z,100.00
2022-10-05T04:01:06.638Z,100.00
2022-10-05T04:04:22.185Z,100.00
2022-10-05T04:07:43.523Z,100.00
2022-10-05T04:10:55.357Z,100.00
2022-10-05T04:14:11.329Z,100.00
2022-10-05T04:17:22.902Z,100.00
2022-10-05T04:20:37.212Z,100.00
2022-10-05T04:23:54.606Z,100.00
2022-10-05T04:27:09.779Z,100.00
2022-10-05T04:30:22.131Z,100.00
2022-10-05T04:33:33.062Z,100.00
2022-10-05T04:36:46.800Z,100.00
2022-10-05T04:40:08.409Z,100.00
2022-10-05T04:43:26.314Z,100.00
2022-10-05T04:46:49.393Z,100.00
2022-10-05T04:50:20.602Z,100.00
2022-10-05T04:53:37.400Z,100.00
2022-10-05T04:56:51.510Z,100.00
2022-10-05T05:00:10.133Z,100.00
2022-10-05T05:04:04.697Z,100.00
2022-10-05T05:07:27.319Z,100.00
2022-10-05T05:10:57.071Z,100.00
2022-10-05T05:14:29.519Z,100.00
2022-10-05T05:17:52.446Z,100.00
2022-10-05T05:21:06.454Z,100.00
2022-10-05T05:24:24.643Z,100.00
2022-10-05T05:27:44.138Z,100.00
2022-10-05T05:30:57.785Z,100.00
2022-10-05T05:34:22.617Z,100.00
2022-10-05T05:37:36.107Z,100.00
2022-10-05T05:40:54.124Z,100.00
2022-10-05T05:44:12.288Z,100.00
2022-10-05T05:47:26.925Z,100.00
2022-10-05T05:50:41.595Z,100.00
2022-10-05T05:53:54.906Z,100.00
2022-10-05T05:57:11.757Z,100.00
2022-10-05T06:00:24.306Z,100.00
2022-10-05T06:03:43.736Z,100.00
2022-10-05T06:06:52.209Z,100.00
2022-10-05T06:10:02.765Z,100.00
2022-10-05T06:13:20.242Z,100.00
2022-10-05T06:16:31.168Z,100.00
2022-10-05T06:19:40.210Z,100.00
2022-10-05T06:22:55.887Z,100.00
2022-10-05T06:26:16.157Z,100.00
2022-10-05T06:29:40.957Z,100.00
2022-10-05T06:33:08.998Z,100.00
2022-10-05T06:36:30.502Z,100.00
2022-10-05T06:40:00.079Z,100.00
2022-10-05T06:43:21.603Z,100.00
2022-10-05T06:46:32.888Z,100.00
2022-10-05T06:49:50.713Z,100.00
2022-10-05T06:53:09.724Z,100.00
2022-10-05T06:56:23.661Z,100.00
2022-10-05T06:59:39.753Z,100.00
2022-10-05T07:02:57.374Z,100.00
2022-10-05T07:06:10.375Z,100.00
2022-10-05T07:09:32.351Z,100.00
2022-10-05T07:12:51.869Z,100.00
2022-10-05T07:16:08.099Z,100.00
2022-10-05T07:19:31.894Z,100.00
2022-10-05T07:23:03.425Z,100.00
2022-10-05T07:26:18.627Z,100.00
2022-10-05T07:29:33.502Z,100.00
2022-10-05T07:32:48.372Z,100.00
2022-10-05T07:36:21.795Z,100.00
2022-10-05T07:39:59.051Z,100.00
2022-10-05T07:43:16.967Z,100.00
2022-10-05T07:46:33.012Z,100.00
2022-10-05T07:49:46.694Z,100.00
2022-10-05T07:52:57.843Z,100.00
2022-10-05T07:56:11.121Z,100.00
2022-10-05T07:59:27.502Z,100.00
2022-10-05T08:02:44.447Z,100.00
2022-10-05T08:05:52.536Z,100.00
2022-10-05T08:09:06.083Z,100.00
2022-10-05T08:12:29.639Z,100.00
2022-10-05T08:15:42.729Z,100.00
2022-10-05T08:18:57.852Z,100.00
2022-10-05T08:22:09.121Z,100.00
2022-10-05T08:25:25.586Z,100.00
2022-10-05T08:28:37.579Z,100.00
2022-10-05T08:31:48.974Z,100.00
2022-10-05T08:35:02.892Z,100.00
2022-10-05T08:38:14.776Z,100.00
2022-10-05T08:42:00.745Z,100.00
2022-10-05T08:46:29.248Z,100.00
2022-10-05T08:50:05.760Z,100.00
2022-10-05T08:53:25.008Z,100.00
2022-10-05T08:56:41.548Z,100.00
2022-10-05T09:00:04.528Z,100.00
2022-10-05T09:03:22.836Z,100.00
2022-10-05T09:06:51.939Z,100.00
2022-10-05T09:10:50.366Z,100.00
2022-10-05T09:14:17.087Z,100.00
2022-10-05T09:17:35.864Z,100.00
2022-10-05T09:20:52.761Z,100.00
2022-10-05T09:24:11.952Z,100.00
2022-10-05T09:27:25.954Z,100.00
2022-10-05T09:30:49.580Z,100.00
2022-10-05T09:34:21.629Z,100.00
2022-10-05T09:38:10.014Z,100.00
2022-10-05T09:41:39.327Z,99.36
2022-10-05T09:45:21.134Z,98.05
2022-10-05T09:49:10.951Z,96.76
2022-10-05T09:52:42.478Z,95.64
2022-10-05T09:56:21.648Z,95.48
2022-10-05T09:59:52.630Z,94.95
2022-10-05T10:03:22.086Z,95.01
2022-10-05T10:07:16.361Z,94.81
2022-10-05T10:10:55.076Z,95.02
2022-10-05T10:14:20.992Z,95.62
2022-10-05T10:17:56.514Z,96.63
2022-10-05T10:21:23.773Z,96.96
2022-10-05T10:24:52.122Z,96.42
2022-10-05T10:28:17.952Z,97.00
2022-10-05T10:31:50.397Z,97.58
2022-10-05T10:35:23.201Z,96.44
2022-10-05T10:38:40.190Z,96.87
2022-10-05T10:42:04.497Z,97.70
2022-10-05T10:45:28.622Z,96.88
2022-10-05T10:49:12.801Z,97.65
2022-10-05T10:52:38.913Z,97.76
2022-10-05T10:56:02.522Z,99.45
2022-10-05T10:59:51.896Z,98.66
2022-10-05T11:03:40.543Z,96.72
2022-10-05T11:07:21.041Z,97.28
2022-10-05T11:11:03.320Z,97.04
2022-10-05T11:14:34.719Z,96.78
2022-10-05T11:18:07.436Z,97.32
2022-10-05T11:21:40.213Z,97.46
2022-10-05T11:25:02.860Z,97.29
2022-10-05T11:28:51.282Z,96.71
2022-10-05T11:32:35.282Z,96.85
2022-10-05T11:36:04.160Z,96.24
2022-10-05T11:39:38.730Z,96.30
2022-10-05T11:43:11.986Z,95.72
2022-10-05T11:46:28.429Z,96.55
2022-10-05T11:49:41.401Z,95.48
2022-10-05T11:52:55.090Z,95.56
2022-10-05T11:56:17.641Z,94.83
2022-10-05T11:59:34.445Z,94.61
2022-10-05T12:03:12.449Z,94.82
2022-10-05T12:06:31.973Z,93.35
2022-10-05T12:10:05.115Z,93.77
2022-10-05T12:13:26.215Z,93.27
2022-10-05T12:16:41.834Z,92.25
2022-10-05T12:19:59.164Z,92.28
2022-10-05T12:23:16.137Z,91.67
2022-10-05T12:26:27.364Z,91.27
2022-10-05T12:29:42.993Z,89.86
2022-10-05T12:33:02.514Z,89.04
2022-10-05T12:36:15.084Z,88.88
2022-10-05T12:39:31.334Z,89.18
2022-10-05T12:42:45.978Z,89.52
2022-10-05T12:46:05.485Z,88.99
2022-10-05T12:49:35.707Z,88.91
2022-10-05T12:52:57.020Z,88.93
2022-10-05T12:56:12.006Z,89.12
2022-10-05T12:59:35.942Z,88.69
2022-10-05T13:02:46.527Z,88.53
2022-10-05T13:06:04.306Z,88.52
2022-10-05T13:09:20.758Z,88.33
2022-10-05T13:12:40.644Z,88.09
2022-10-05T13:15:52.173Z,88.69
2022-10-05T13:19:16.570Z,88.73
2022-10-05T13:22:34.647Z,88.78
2022-10-05T13:25:52.003Z,88.78
2022-10-05T13:29:13.920Z,88.94
2022-10-05T13:32:25.647Z,88.51
2022-10-05T13:35:44.279Z,88.67
2022-10-05T13:38:59.426Z,88.26
2022-10-05T13:42:12.222Z,88.50
2022-10-05T13:45:22.942Z,88.44
2022-10-05T13:48:50.377Z,88.65
2022-10-05T13:52:07.583Z,88.56
2022-10-05T13:55:32.613Z,88.51
2022-10-05T13:58:48.092Z,88.31
2022-10-05T14:02:02.147Z,88.32
2022-10-05T14:05:18.612Z,88.58
2022-10-05T14:08:33.471Z,88.36
2022-10-05T14:11:50.033Z,88.73
2022-10-05T14:14:58.343Z,88.60
2022-10-05T14:18:25.306Z,89.14
2022-10-05T14:21:32.516Z,88.58
2022-10-05T14:24:49.652Z,89.07
2022-10-05T14:28:04.606Z,89.53
2022-10-05T14:31:16.561Z,89.38
2022-10-05T14:34:36.588Z,89.06
2022-10-05T14:37:52.105Z,89.56
2022-10-05T14:41:22.487Z,89.19
2022-10-05T14:47:52.109Z,90.01
2022-10-05T14:51:03.439Z,89.48
2022-10-05T14:54:42.122Z,89.68
2022-10-05T14:58:06.337Z,89.86
2022-10-05T15:01:31.047Z,89.96
2022-10-05T15:04:44.779Z,89.71
2022-10-05T15:08:01.644Z,90.16
2022-10-05T15:11:13.684Z,90.36
2022-10-05T15:14:25.187Z,90.59
2022-10-05T15:17:42.768Z,90.47
2022-10-05T15:20:56.127Z,90.10
2022-10-05T15:24:07.154Z,90.45
2022-10-05T15:27:29.850Z,90.95
2022-10-05T15:30:50.687Z,90.78
2022-10-05T15:34:02.754Z,90.67
2022-10-05T15:37:18.047Z,91.12
2022-10-05T15:40:33.487Z,91.37
2022-10-05T15:43:50.970Z,91.22
2022-10-05T15:47:07.817Z,90.96
2022-10-05T15:50:22.585Z,91.43
2022-10-05T15:53:39.167Z,91.47
2022-10-05T15:56:57.359Z,90.91
2022-10-05T16:00:11.201Z,91.03
2022-10-05T16:03:26.683Z,90.78
2022-10-05T16:07:00.643Z,90.58
2022-10-05T16:10:16.825Z,90.65
2022-10-05T16:13:37.526Z,90.75
2022-10-05T16:16:58.570Z,90.12
2022-10-05T16:20:21.290Z,90.00
2022-10-05T16:23:41.664Z,90.58
2022-10-05T16:27:01.074Z,91.27
2022-10-05T16:30:13.583Z,91.58
2022-10-05T16:33:29.277Z,91.90
2022-10-05T16:36:48.904Z,92.50
2022-10-05T16:40:00.500Z,93.07
2022-10-05T16:43:19.909Z,93.32
2022-10-05T16:46:36.655Z,93.43
2022-10-05T16:49:47.228Z,93.88
2022-10-05T16:52:58.785Z,94.18
2022-10-05T16:56:12.585Z,94.55
2022-10-05T16:59:54.346Z,94.90
2022-10-05T17:03:21.536Z,94.97
2022-10-05T17:06:47.962Z,95.11
2022-10-05T17:10:09.088Z,95.29
2022-10-05T17:13:55.088Z,95.66
2022-10-05T17:17:29.812Z,95.87
2022-10-05T17:21:02.492Z,96.27
2022-10-05T17:24:30.255Z,96.54
2022-10-05T17:27:54.491Z,96.99
2022-10-05T17:31:15.939Z,97.29
2022-10-05T17:34:31.085Z,97.33
2022-10-05T17:37:39.882Z,98.07
2022-10-05T17:41:12.551Z,98.42
2022-10-05T17:44:29.170Z,98.10
2022-10-05T17:47:58.251Z,98.19
2022-10-05T17:51:31.953Z,98.62
2022-10-05T17:55:30.221Z,98.70
2022-10-05T17:59:03.420Z,98.29
2022-10-05T18:02:22.662Z,98.22
2022-10-05T18:05:32.703Z,98.30
2022-10-05T18:08:42.082Z,98.60
2022-10-05T18:12:18.348Z,98.67
2022-10-05T18:15:50.162Z,98.77
2022-10-05T18:18:58.987Z,99.10
2022-10-05T18:22:28.065Z,99.32
2022-10-05T18:25:46.892Z,99.44
2022-10-05T18:29:36.487Z,98.97
2022-10-05T18:33:30.495Z,98.74
2022-10-05T18:36:56.435Z,98.54
2022-10-05T18:40:22.525Z,98.17
2022-10-05T18:43:41.011Z,97.66
2022-10-05T18:46:54.180Z,97.49
2022-10-05T18:50:16.649Z,97.34
2022-10-05T18:53:36.210Z,96.85
2022-10-05T18:56:50.614Z,96.87
2022-10-05T19:00:03.960Z,96.56
2022-10-05T19:03:20.187Z,96.86
2022-10-05T19:06:30.960Z,97.13
2022-10-05T19:09:51.641Z,97.44
2022-10-05T19:13:20.706Z,97.80
2022-10-05T19:16:42.155Z,98.36
2022-10-05T19:20:14.018Z,98.70
2022-10-05T19:23:52.198Z,98.25
2022-10-05T19:27:08.040Z,98.00
2022-10-05T19:30:21.102Z,97.73
2022-10-05T19:33:45.457Z,96.98
2022-10-05T19:37:03.333Z,96.86
2022-10-05T19:40:21.364Z,96.51
2022-10-05T19:43:47.099Z,97.09
2022-10-05T19:47:00.565Z,96.97
2022-10-05T19:50:27.229Z,96.12
2022-10-05T19:53:40.543Z,95.56
2022-10-05T19:56:50.981Z,95.49
2022-10-05T20:00:01.802Z,94.51
2022-10-05T20:03:16.930Z,93.67
2022-10-05T20:06:26.743Z,93.08
2022-10-05T20:09:54.208Z,92.84
2022-10-05T20:13:03.676Z,92.29
2022-10-05T20:16:37.463Z,91.74
2022-10-05T20:20:02.989Z,91.44
2022-10-05T20:23:22.794Z,92.23
2022-10-05T20:26:58.785Z,91.50
2022-10-05T20:30:10.667Z,92.06
2022-10-05T20:33:19.484Z,91.99
2022-10-05T20:36:27.276Z,92.34
2022-10-05T20:39:33.643Z,92.32
2022-10-05T20:42:43.867Z,92.45
2022-10-05T20:45:49.797Z,93.36
2022-10-05T20:48:55.670Z,93.55
2022-10-05T20:52:06.677Z,93.82
2022-10-05T20:55:13.240Z,94.61
2022-10-05T20:58:21.033Z,94.54
2022-10-05T21:01:31.893Z,94.68
2022-10-05T21:04:47.390Z,94.81
2022-10-05T21:07:55.030Z,94.93
2022-10-05T21:11:01.930Z,95.25
2022-10-05T21:14:12.907Z,95.78
2022-10-05T21:17:20.251Z,96.46
2022-10-05T21:20:25.992Z,96.92
2022-10-05T21:23:35.215Z,97.84
2022-10-05T21:26:44.289Z,97.68
2022-10-05T21:30:05.352Z,97.58
2022-10-05T21:33:14.276Z,98.04
2022-10-05T21:36:29.974Z,98.20
2022-10-05T21:39:36.695Z,98.09
2022-10-05T21:42:41.561Z,98.22
2022-10-05T21:45:50.201Z,98.29
2022-10-05T21:48:58.439Z,97.72
2022-10-05T21:52:07.844Z,97.82
2022-10-05T21:55:13.946Z,97.79
2022-10-05T21:58:21.725Z,97.84
2022-10-05T22:01:29.331Z,98.16
2022-10-05T22:04:52.764Z,98.66
2022-10-05T22:08:00.204Z,99.02
2022-10-05T22:11:13.182Z,98.30
2022-10-05T22:14:22.764Z,98.72
2022-10-05T22:17:31.795Z,98.97
2022-10-05T22:20:39.527Z,98.82
2022-10-05T22:23:47.173Z,98.55
2022-10-05T22:26:54.679Z,98.16
2022-10-05T22:30:03.005Z,98.15
2022-10-05T22:33:13.242Z,97.26
2022-10-05T22:36:22.097Z,97.44
2022-10-05T22:39:28.947Z,96.66
2022-10-05T22:42:40.573Z,96.20
2022-10-05T22:45:46.568Z,96.29
2022-10-05T22:48:53.154Z,99.05
2022-10-05T22:52:02.601Z,100.00
2022-10-05T22:55:11.198Z,100.00
2022-10-05T22:58:17.558Z,100.00
2022-10-05T23:01:27.110Z,100.00
2022-10-05T23:04:34.731Z,100.00
2022-10-05T23:07:43.753Z,100.00
2022-10-05T23:10:50.074Z,100.00
2022-10-05T23:14:00.309Z,100.00
2022-10-05T23:17:08.857Z,100.00
2022-10-05T23:20:14.640Z,100.00
2022-10-05T23:23:25.412Z,100.00
2022-10-05T23:26:33.002Z,100.00
2022-10-05T23:29:40.123Z,100.00
2022-10-05T23:32:51.035Z,100.00
2022-10-05T23:36:02.514Z,100.00
2022-10-05T23:39:07.830Z,100.00
2022-10-05T23:42:20.236Z,100.00
2022-10-05T23:45:28.992Z,100.00
2022-10-05T23:48:37.937Z,100.00
2022-10-05T23:51:47.612Z,100.00
2022-10-05T23:54:55.296Z,100.00
2022-10-05T23:58:00.966Z,100.00
